createdAt,value
2022-08-19T00:02:11.714Z,98197.75
2022-08-19T00:05:14.190Z,98200.31
2022-08-19T00:08:17.295Z,98203.16
2022-08-19T00:11:25.600Z,98200.97
2022-08-19T00:14:28.648Z,98202.44
2022-08-19T00:17:30.214Z,98207.56
2022-08-19T00:20:31.931Z,98209.28
2022-08-19T00:23:37.139Z,98209.41
2022-08-19T00:26:39.604Z,98207.28
2022-08-19T00:29:41.452Z,98201.28
2022-08-19T00:32:43.107Z,98189.59
2022-08-19T00:35:47.586Z,98180.63
2022-08-19T00:38:59.584Z,98174.34
2022-08-19T00:42:01.613Z,98172.50
2022-08-19T00:45:03.672Z,98174.50
2022-08-19T00:48:05.538Z,98156.84
2022-08-19T00:51:17.181Z,98155.25
2022-08-19T00:54:20.875Z,98151.81
2022-08-19T00:57:36.407Z,98153.66
2022-08-19T01:00:39.072Z,98155.66
2022-08-19T01:03:56.683Z,98155.81
2022-08-19T01:07:00.655Z,98155.94
2022-08-19T01:10:04.545Z,98151.94
2022-08-19T01:13:06.692Z,98150.66
2022-08-19T01:16:10.260Z,98142.53
2022-08-19T01:19:17.945Z,98141.22
2022-08-19T01:22:30.194Z,98139.94
2022-08-19T01:25:36.719Z,98140.31
2022-08-19T01:28:42.363Z,98140.19
2022-08-19T01:31:44.050Z,98138.75
2022-08-19T01:34:47.887Z,98134.63
2022-08-19T01:37:50.803Z,98137.72
2022-08-19T01:40:53.828Z,98129.03
2022-08-19T01:44:03.225Z,98126.47
2022-08-19T01:47:20.686Z,98125.00
2022-08-19T01:50:22.406Z,98121.56
2022-08-19T01:53:30.532Z,98111.31
2022-08-19T01:56:36.739Z,98115.53
2022-08-19T01:59:39.843Z,98129.19
2022-08-19T02:02:44.186Z,98123.44
2022-08-19T02:05:46.745Z,98126.00
2022-08-19T02:08:48.988Z,98119.44
2022-08-19T02:11:54.471Z,98116.53
2022-08-19T02:14:56.386Z,98105.41
2022-08-19T02:17:58.423Z,98100.00
2022-08-19T02:21:00.283Z,98098.28
2022-08-19T02:24:01.944Z,98096.56
2022-08-19T02:27:05.855Z,98089.75
2022-08-19T02:30:08.951Z,98087.28
2022-08-19T02:33:17.106Z,98095.53
2022-08-19T02:36:21.239Z,98092.97
2022-08-19T02:39:22.899Z,98101.78
2022-08-19T02:42:26.460Z,98100.78
2022-08-19T02:45:28.113Z,98099.63
2022-08-19T02:48:29.917Z,98093.75
2022-08-19T02:51:34.969Z,98094.88
2022-08-19T02:54:36.768Z,98090.47
2022-08-19T02:57:39.788Z,98091.59
2022-08-19T03:00:46.458Z,98096.38
2022-08-19T03:03:47.993Z,98085.28
2022-08-19T03:06:50.325Z,98089.34
2022-08-19T03:09:52.394Z,98105.94
2022-08-19T03:12:55.433Z,98108.78
2022-08-19T03:15:57.403Z,98104.44
2022-08-19T03:19:02.413Z,98097.59
2022-08-19T03:22:05.563Z,98099.56
2022-08-19T03:25:07.656Z,98095.53
2022-08-19T03:28:11.048Z,98094.09
2022-08-19T03:31:44.253Z,98102.31
2022-08-19T03:34:38.021Z,98103.16
2022-08-19T03:37:39.929Z,98103.31
2022-08-19T03:40:44.171Z,98102.81
2022-08-19T03:43:54.013Z,98108.47
2022-08-19T03:46:57.380Z,98113.16
2022-08-19T03:49:59.106Z,98115.00
2022-08-19T03:53:02.135Z,98130.56
2022-08-19T03:56:04.021Z,98131.31
2022-08-19T03:59:09.265Z,98130.56
2022-08-19T04:02:14.491Z,98135.94
2022-08-19T04:05:16.397Z,98142.59
2022-08-19T04:08:23.398Z,98139.91
2022-08-19T04:11:42.750Z,98132.44
2022-08-19T04:14:47.687Z,98137.72
2022-08-19T04:17:49.368Z,98144.22
2022-08-19T04:20:51.206Z,98147.44
2022-08-19T04:23:53.476Z,98134.66
2022-08-19T04:26:57.451Z,98140.41
2022-08-19T04:30:00.961Z,98146.56
2022-08-19T04:33:02.731Z,98143.38
2022-08-19T04:36:04.783Z,98146.19
2022-08-19T04:39:07.753Z,98145.47
2022-08-19T04:42:30.646Z,98150.28
2022-08-19T04:45:43.703Z,98154.41
2022-08-19T04:48:49.175Z,98144.50
2022-08-19T04:51:53.437Z,98149.16
2022-08-19T04:54:56.451Z,98150.13
2022-08-19T04:57:58.227Z,98148.06
2022-08-19T05:01:01.999Z,98144.38
2022-08-19T05:04:05.672Z,98136.03
2022-08-19T05:07:07.746Z,98144.38
2022-08-19T05:10:10.163Z,98146.59
2022-08-19T05:13:12.111Z,98150.88
2022-08-19T05:16:15.967Z,98150.88
2022-08-19T05:19:36.214Z,98147.47
2022-08-19T05:22:38.410Z,98149.19
2022-08-19T05:25:40.691Z,98159.81
2022-08-19T05:28:43.400Z,98159.56
2022-08-19T05:31:47.245Z,98150.88
2022-08-19T05:34:48.782Z,98148.06
2022-08-19T05:37:50.466Z,98145.38
2022-08-19T05:40:56.776Z,98144.75
2022-08-19T05:43:59.832Z,98138.13
2022-08-19T05:47:05.697Z,98145.34
2022-08-19T05:50:07.781Z,98137.97
2022-08-19T05:53:10.071Z,98133.72
2022-08-19T05:56:13.569Z,98145.34
2022-08-19T05:59:19.213Z,98148.50
2022-08-19T06:02:26.544Z,98148.03
2022-08-19T06:05:28.183Z,98142.72
2022-08-19T06:08:34.522Z,98145.44
2022-08-19T06:11:38.040Z,98136.81
2022-08-19T06:14:41.721Z,98142.19
2022-08-19T06:17:47.759Z,98156.44
2022-08-19T06:20:55.850Z,98156.44
2022-08-19T06:23:59.198Z,98152.28
2022-08-19T06:27:01.630Z,98150.94
2022-08-19T06:30:04.333Z,98153.66
2022-08-19T06:33:07.542Z,98149.84
2022-08-19T06:36:16.676Z,98145.28
2022-08-19T06:39:19.984Z,98159.50
2022-08-19T06:42:21.766Z,98155.81
2022-08-19T06:45:35.378Z,98161.22
2022-08-19T06:48:45.706Z,98163.78
2022-08-19T06:51:48.942Z,98178.16
2022-08-19T06:54:56.361Z,98178.88
2022-08-19T06:58:01.301Z,98174.34
2022-08-19T07:01:07.106Z,98170.66
2022-08-19T07:04:12.653Z,98178.63
2022-08-19T07:07:21.073Z,98187.19
2022-08-19T07:10:23.366Z,98201.16
2022-08-19T07:13:27.633Z,98199.34
2022-08-19T07:16:29.779Z,98200.91
2022-08-19T07:19:33.348Z,98198.72
2022-08-19T07:22:35.308Z,98205.41
2022-08-19T07:25:39.013Z,98214.50
2022-08-19T07:28:51.293Z,98223.09
2022-08-19T07:31:53.909Z,98233.72
2022-08-19T07:34:57.520Z,98237.22
2022-08-19T07:37:59.288Z,98235.59
2022-08-19T07:41:01.265Z,98233.84
2022-08-19T07:44:04.914Z,98232.59
2022-08-19T07:47:07.869Z,98244.38
2022-08-19T07:50:30.987Z,98236.00
2022-08-19T07:53:36.685Z,98242.00
2022-08-19T07:56:41.392Z,98251.88
2022-08-19T07:59:43.153Z,98253.34
2022-08-19T08:02:45.334Z,98261.75
2022-08-19T08:06:07.805Z,98273.28
2022-08-19T08:09:13.381Z,98267.59
2022-08-19T08:12:33.492Z,98273.59
2022-08-19T08:15:41.382Z,98272.22
2022-08-19T08:18:50.610Z,98269.75
2022-08-19T08:21:57.504Z,98267.97
2022-08-19T08:25:01.536Z,98266.97
2022-08-19T08:28:03.714Z,98273.81
2022-08-19T08:31:09.397Z,98273.88
2022-08-19T08:34:12.364Z,98275.38
2022-08-19T08:37:16.005Z,98283.97
2022-08-19T08:40:20.504Z,98270.78
2022-08-19T08:43:24.465Z,98280.78
2022-08-19T08:46:32.452Z,98276.91
2022-08-19T08:49:38.255Z,98279.03
2022-08-19T08:52:44.127Z,98281.06
2022-08-19T08:55:47.914Z,98270.00
2022-08-19T08:58:55.681Z,98284.31
2022-08-19T09:01:57.434Z,98273.19
2022-08-19T09:04:59.259Z,98275.94
2022-08-19T09:08:08.421Z,98273.81
2022-08-19T09:11:17.220Z,98275.97
2022-08-19T09:14:50.857Z,98287.13
2022-08-19T09:17:53.350Z,98277.28
2022-08-19T09:20:57.193Z,98277.56
2022-08-19T09:24:00.519Z,98275.03
2022-08-19T09:27:18.168Z,98261.47
2022-08-19T09:30:22.739Z,98264.19
2022-08-19T09:33:24.423Z,98271.19
2022-08-19T09:36:34.451Z,98287.59
2022-08-19T09:39:38.204Z,98292.47
2022-08-19T09:42:50.118Z,98297.31
2022-08-19T09:45:53.524Z,98293.88
2022-08-19T09:49:06.479Z,98299.72
2022-08-19T09:52:09.598Z,98300.00
2022-08-19T09:55:17.402Z,98286.59
2022-08-19T09:58:23.393Z,98289.59
2022-08-19T10:01:28.739Z,98280.06
2022-08-19T10:04:48.919Z,98276.19
2022-08-19T10:07:51.283Z,98274.63
2022-08-19T10:10:54.630Z,98281.72
2022-08-19T10:13:56.393Z,98273.06
2022-08-19T10:16:59.365Z,98271.91
2022-08-19T10:20:01.129Z,98270.78
2022-08-19T10:23:02.946Z,98258.22
2022-08-19T10:26:08.419Z,98262.75
2022-08-19T10:29:11.062Z,98253.03
2022-08-19T10:32:12.862Z,98260.72
2022-08-19T10:35:21.152Z,98242.72
2022-08-19T10:38:31.276Z,98244.25
2022-08-19T10:41:37.201Z,98238.91
2022-08-19T10:44:39.340Z,98239.19
2022-08-19T10:47:41.124Z,98236.06
2022-08-19T10:51:01.665Z,98232.88
2022-08-19T10:54:06.877Z,98235.44
2022-08-19T10:57:15.839Z,98227.06
2022-08-19T11:00:17.921Z,98221.59
2022-08-19T11:03:19.815Z,98220.75
2022-08-19T11:06:21.977Z,98219.75
2022-08-19T11:09:34.471Z,98217.75
2022-08-19T11:12:40.349Z,98215.41
2022-08-19T11:15:41.954Z,98211.59
2022-08-19T11:18:44.916Z,98213.13
2022-08-19T11:21:48.109Z,98204.88
2022-08-19T11:24:51.128Z,98207.00
2022-08-19T11:27:54.353Z,98209.47
2022-08-19T11:30:56.058Z,98200.09
2022-08-19T11:33:58.199Z,98201.00
2022-08-19T11:37:00.673Z,98201.72
2022-08-19T11:40:02.941Z,98195.78
2022-08-19T11:43:06.019Z,98199.00
2022-08-19T11:46:08.707Z,98205.47
2022-08-19T11:49:13.843Z,98205.53
2022-08-19T11:52:16.645Z,98213.34
2022-08-19T11:55:18.366Z,98204.00
2022-08-19T11:58:21.602Z,98189.25
2022-08-19T12:01:24.455Z,98189.94
2022-08-19T12:04:26.187Z,98185.69
2022-08-19T12:07:28.008Z,98186.53
2022-08-19T12:10:29.751Z,98187.22
2022-08-19T12:13:33.089Z,98194.13
2022-08-19T12:16:37.737Z,98192.06
2022-08-19T12:19:41.597Z,98185.78
2022-08-19T12:22:43.933Z,98182.59
2022-08-19T12:25:53.072Z,98179.25
2022-08-19T12:28:56.573Z,98179.44
2022-08-19T12:32:05.287Z,98173.00
2022-08-19T12:35:07.822Z,98163.81
2022-08-19T12:38:09.692Z,98162.78
2022-08-19T12:41:13.498Z,98173.88
2022-08-19T12:44:17.920Z,98173.50
2022-08-19T12:47:22.199Z,98186.31
2022-08-19T12:50:23.902Z,98181.22
2022-08-19T12:53:25.988Z,98177.13
2022-08-19T12:56:28.584Z,98170.34
2022-08-19T12:59:31.958Z,98160.63
2022-08-19T13:02:39.084Z,98161.66
2022-08-19T13:05:41.654Z,98157.75
2022-08-19T13:08:43.399Z,98165.25
2022-08-19T13:11:48.483Z,98171.56
2022-08-19T13:14:52.022Z,98170.84
2022-08-19T13:17:54.831Z,98164.91
2022-08-19T13:20:57.647Z,98159.59
2022-08-19T13:23:59.633Z,98171.16
2022-08-19T13:27:01.800Z,98165.06
2022-08-19T13:30:24.923Z,98144.94
2022-08-19T13:33:28.021Z,98156.50
2022-08-19T13:36:30.139Z,98164.34
2022-08-19T13:39:33.530Z,98159.44
2022-08-19T13:42:35.321Z,98155.66
2022-08-19T13:45:38.732Z,98151.59
2022-08-19T13:48:41.840Z,98165.22
2022-08-19T13:51:43.975Z,98153.41
2022-08-19T13:54:45.755Z,98163.31
2022-08-19T13:57:50.965Z,98164.69
2022-08-19T14:00:54.419Z,98165.06
2022-08-19T14:03:56.544Z,98162.00
2022-08-19T14:06:58.549Z,98167.09
2022-08-19T14:10:00.405Z,98161.78
2022-08-19T14:13:03.067Z,98159.59
2022-08-19T14:16:09.791Z,98169.16
2022-08-19T14:19:11.575Z,98171.00
2022-08-19T14:22:13.382Z,98169.59
2022-08-19T14:25:18.655Z,98158.16
2022-08-19T14:28:20.548Z,98168.22
2022-08-19T14:31:30.978Z,98162.88
2022-08-19T14:34:34.725Z,98166.03
2022-08-19T14:37:37.252Z,98161.44
2022-08-19T14:40:47.955Z,98166.41
2022-08-19T14:43:50.923Z,98166.41
2022-08-19T14:46:54.563Z,98167.25
2022-08-19T14:49:56.434Z,98175.75
2022-08-19T14:53:05.325Z,98164.06
2022-08-19T14:56:14.050Z,98164.88
2022-08-19T14:59:15.676Z,98166.63
2022-08-19T15:02:33.798Z,98165.44
2022-08-19T15:05:37.947Z,98163.25
2022-08-19T15:08:42.030Z,98170.38
2022-08-19T15:11:43.681Z,98178.56
2022-08-19T15:14:53.001Z,98183.03
2022-08-19T15:18:03.509Z,98188.19
2022-08-19T15:21:05.796Z,98188.00
2022-08-19T15:24:07.626Z,98184.09
2022-08-19T15:27:09.318Z,98193.31
2022-08-19T15:30:11.686Z,98186.38
2022-08-19T15:33:15.416Z,98183.13
2022-08-19T15:36:17.503Z,98183.47
2022-08-19T15:39:21.602Z,98189.28
2022-08-19T15:42:29.973Z,98182.63
2022-08-19T15:45:34.957Z,98184.13
2022-08-19T15:48:38.498Z,98182.41
2022-08-19T15:51:43.113Z,98183.09
2022-08-19T15:54:46.101Z,98170.13
2022-08-19T15:58:06.521Z,98179.88
2022-08-19T16:01:28.321Z,98179.38
2022-08-19T16:04:49.878Z,98178.00
2022-08-19T16:07:51.872Z,98171.00
2022-08-19T16:10:53.625Z,98169.13
2022-08-19T16:13:55.231Z,98167.91
2022-08-19T16:17:00.359Z,98171.84
2022-08-19T16:20:04.020Z,98167.78
2022-08-19T16:23:06.611Z,98162.63
2022-08-19T16:26:08.664Z,98160.94
2022-08-19T16:29:13.349Z,98167.78
2022-08-19T16:32:15.165Z,98165.41
2022-08-19T16:35:18.931Z,98160.97
2022-08-19T16:38:21.904Z,98164.38
2022-08-19T16:41:23.602Z,98157.56
2022-08-19T16:44:29.717Z,98166.38
2022-08-19T16:47:31.651Z,98161.94
2022-08-19T16:50:48.613Z,98168.78
2022-08-19T16:53:52.986Z,98166.22
2022-08-19T16:56:56.111Z,98167.41
2022-08-19T16:59:58.037Z,98171.31
2022-08-19T17:03:04.777Z,98172.69
2022-08-19T17:06:17.837Z,98166.75
2022-08-19T17:09:26.102Z,98173.19
2022-08-19T17:12:30.661Z,98175.91
2022-08-19T17:15:34.022Z,98174.75
2022-08-19T17:18:35.817Z,98161.97
2022-08-19T17:21:40.946Z,98154.09
2022-08-19T17:24:42.872Z,98147.97
2022-08-19T17:27:47.805Z,98145.94
2022-08-19T17:30:49.698Z,98139.09
2022-08-19T17:33:52.194Z,98140.47
2022-08-19T17:36:58.892Z,98143.38
2022-08-19T17:40:04.305Z,98144.72
2022-08-19T17:43:08.001Z,98135.84
2022-08-19T17:46:13.352Z,98143.88
2022-08-19T17:49:19.952Z,98142.47
2022-08-19T17:52:25.202Z,98139.41
2022-08-19T17:55:27.421Z,98141.78
2022-08-19T17:58:29.364Z,98147.88
2022-08-19T18:01:52.713Z,98145.81
2022-08-19T18:04:53.603Z,98151.75
2022-08-19T18:07:57.419Z,98149.69
2022-08-19T18:10:59.051Z,98147.47
2022-08-19T18:14:00.653Z,98153.41
2022-08-19T18:17:05.952Z,98145.72
2022-08-19T18:20:12.154Z,98150.81
2022-08-19T18:23:44.377Z,98148.06
2022-08-19T18:26:43.418Z,98150.75
2022-08-19T18:29:45.175Z,98159.56
2022-08-19T18:32:49.892Z,98162.78
2022-08-19T18:35:53.157Z,98170.41
2022-08-19T18:39:15.252Z,98174.28
2022-08-19T18:42:36.750Z,98178.03
2022-08-19T18:45:57.398Z,98179.75
2022-08-19T18:49:05.254Z,98175.31
2022-08-19T18:52:06.991Z,98175.31
2022-08-19T18:55:10.266Z,98176.31
2022-08-19T18:58:11.981Z,98171.91
2022-08-19T19:01:15.030Z,98178.53
2022-08-19T19:04:17.874Z,98186.13
2022-08-19T19:07:20.057Z,98182.88
2022-08-19T19:10:25.934Z,98189.31
2022-08-19T19:13:29.642Z,98192.38
2022-08-19T19:16:32.188Z,98201.84
2022-08-19T19:19:34.819Z,98214.75
2022-08-19T19:22:36.451Z,98215.09
2022-08-19T19:25:49.755Z,98222.72
2022-08-19T19:28:52.573Z,98232.34
2022-08-19T19:31:56.067Z,98231.66
2022-08-19T19:34:59.756Z,98236.25
2022-08-19T19:38:01.858Z,98235.72
2022-08-19T19:41:05.301Z,98238.72
2022-08-19T19:44:30.974Z,98236.50
2022-08-19T19:47:31.175Z,98238.53
2022-08-19T19:50:33.974Z,98239.66
2022-08-19T19:53:35.612Z,98249.69
2022-08-19T19:56:39.217Z,98248.72
2022-08-19T19:59:44.885Z,98250.88
2022-08-19T20:02:56.000Z,98260.34
2022-08-19T20:06:00.237Z,98258.94
2022-08-19T20:09:08.292Z,98258.09
2022-08-19T20:12:11.554Z,98256.53
2022-08-19T20:15:14.896Z,98260.25
2022-08-19T20:18:16.514Z,98256.69
2022-08-19T20:21:18.325Z,98270.44
2022-08-19T20:24:22.645Z,98267.31
2022-08-19T20:27:25.904Z,98261.34
2022-08-19T20:30:32.604Z,98264.22
2022-08-19T20:33:35.178Z,98267.22
2022-08-19T20:36:36.877Z,98266.81
2022-08-19T20:39:38.726Z,98267.13
2022-08-19T20:42:44.117Z,98264.72
2022-08-19T20:45:47.144Z,98265.00
2022-08-19T20:48:48.861Z,98275.34
2022-08-19T20:51:51.218Z,98270.50
2022-08-19T20:54:53.103Z,98268.94
2022-08-19T20:57:57.053Z,98269.97
2022-08-19T21:01:00.529Z,98257.53
2022-08-19T21:04:02.871Z,98259.56
2022-08-19T21:07:04.930Z,98265.16
2022-08-19T21:10:07.266Z,98270.00
2022-08-19T21:13:10.889Z,98262.72
2022-08-19T21:16:12.559Z,98261.63
2022-08-19T21:19:14.281Z,98260.91
2022-08-19T21:22:16.095Z,98259.34
2022-08-19T21:25:18.411Z,98252.38
2022-08-19T21:28:29.914Z,98252.53
2022-08-19T21:31:37.913Z,98252.38
2022-08-19T21:34:40.227Z,98252.53
2022-08-19T21:37:44.302Z,98256.69
2022-08-19T21:40:45.811Z,98250.72
2022-08-19T21:43:48.795Z,98250.88
2022-08-19T21:46:51.497Z,98250.31
2022-08-19T21:49:53.239Z,98258.75
2022-08-19T21:52:54.957Z,98256.19
2022-08-19T21:55:59.487Z,98263.47
2022-08-19T21:59:02.849Z,98266.19
2022-08-19T22:02:19.016Z,98258.50
2022-08-19T22:05:23.386Z,98265.63
2022-08-19T22:08:25.619Z,98258.34
2022-08-19T22:11:27.554Z,98262.91
2022-08-19T22:14:33.963Z,98263.78
2022-08-19T22:17:36.727Z,98265.47
2022-08-19T22:20:40.938Z,98269.19
2022-08-19T22:23:44.742Z,98252.59
2022-08-19T22:26:46.830Z,98254.94
2022-08-19T22:29:52.321Z,98268.63
2022-08-19T22:32:58.950Z,98269.06
2022-08-19T22:36:01.089Z,98266.78
2022-08-19T22:39:05.551Z,98260.38
2022-08-19T22:42:07.527Z,98262.53
2022-08-19T22:45:12.770Z,98264.53
2022-08-19T22:48:15.642Z,98267.56
2022-08-19T22:51:35.860Z,98264.44
2022-08-19T22:54:37.435Z,98259.72
2022-08-19T22:57:39.230Z,98253.59
2022-08-19T23:00:45.309Z,98256.59
2022-08-19T23:03:50.110Z,98251.63
2022-08-19T23:06:55.486Z,98252.78
2022-08-19T23:10:03.476Z,98262.19
2022-08-19T23:13:05.488Z,98254.50
2022-08-19T23:16:08.836Z,98260.22
2022-08-19T23:19:13.216Z,98266.06
2022-08-19T23:22:15.904Z,98251.09
2022-08-19T23:25:19.216Z,98251.38
2022-08-19T23:28:40.690Z,98247.66
2022-08-19T23:31:43.981Z,98249.78
2022-08-19T23:34:48.787Z,98246.94
2022-08-19T23:37:53.624Z,98244.38
2022-08-19T23:40:57.012Z,98252.66
2022-08-19T23:44:00.507Z,98251.25
2022-08-19T23:47:06.315Z,98256.47
2022-08-19T23:50:09.492Z,98253.34
2022-08-19T23:53:13.339Z,98250.06
2022-08-19T23:56:15.639Z,98247.06
2022-08-19T23:59:21.239Z,98247.22
